createdAt,value
2019-05-28T00:02:11.307Z,13.80
2019-05-28T00:04:41.960Z,13.80
2019-05-28T00:07:12.432Z,13.80
2019-05-28T00:09:42.879Z,13.70
2019-05-28T00:12:13.317Z,13.70
2019-05-28T00:14:43.779Z,13.60
2019-05-28T00:17:14.226Z,13.60
2019-05-28T00:19:44.685Z,13.60
2019-05-28T00:22:15.304Z,13.60
2019-05-28T00:24:45.767Z,13.60
2019-05-28T00:27:16.216Z,13.60
2019-05-28T00:29:46.683Z,13.60
2019-05-28T00:32:17.169Z,13.60
2019-05-28T00:34:47.744Z,13.50
2019-05-28T00:37:18.182Z,13.50
2019-05-28T00:39:48.770Z,13.60
2019-05-28T00:42:19.339Z,13.60
2019-05-28T00:44:49.890Z,13.60
2019-05-28T00:47:20.459Z,13.60
2019-05-28T00:49:50.988Z,13.60
2019-05-28T00:52:21.452Z,13.60
2019-05-28T00:54:51.961Z,13.60
2019-05-28T00:57:24.351Z,13.60
2019-05-28T00:59:56.344Z,13.70
2019-05-28T01:02:26.860Z,13.70
2019-05-28T01:04:57.302Z,13.60
2019-05-28T01:07:27.746Z,13.70
2019-05-28T01:09:58.255Z,13.70
2019-05-28T01:12:28.813Z,13.70
2019-05-28T01:14:59.372Z,13.60
2019-05-28T01:17:29.841Z,13.60
2019-05-28T01:20:00.250Z,13.60
2019-05-28T01:22:30.799Z,13.60
2019-05-28T01:25:01.222Z,13.60
2019-05-28T01:27:31.935Z,13.60
2019-05-28T01:30:02.371Z,13.60
2019-05-28T01:32:32.862Z,13.60
2019-05-28T01:35:03.338Z,13.60
2019-05-28T01:37:33.849Z,13.60
2019-05-28T01:40:04.432Z,13.60
2019-05-28T01:42:34.906Z,13.60
2019-05-28T01:45:05.875Z,13.70
2019-05-28T01:47:36.494Z,13.60
2019-05-28T01:50:08.569Z,13.60
2019-05-28T01:52:39.031Z,13.60
2019-05-28T01:55:10.435Z,13.60
2019-05-28T01:57:40.956Z,13.60
2019-05-28T02:00:13.218Z,13.60
2019-05-28T02:02:43.765Z,13.50
2019-05-28T02:05:16.245Z,13.50
2019-05-28T02:07:46.812Z,13.50
2019-05-28T02:10:19.041Z,13.50
2019-05-28T02:12:49.557Z,13.50
2019-05-28T02:15:21.218Z,13.50
2019-05-28T02:17:51.711Z,13.50
2019-05-28T02:20:22.182Z,13.50
2019-05-28T02:22:52.659Z,13.50
2019-05-28T02:25:23.110Z,13.50
2019-05-28T02:27:53.559Z,13.40
2019-05-28T02:30:24.781Z,13.40
2019-05-28T02:32:55.434Z,13.40
2019-05-28T02:35:25.955Z,13.40
2019-05-28T02:37:56.462Z,13.40
2019-05-28T02:40:27.528Z,13.40
2019-05-28T02:42:58.456Z,13.40
2019-05-28T02:45:28.883Z,13.40
2019-05-28T02:47:59.322Z,13.40
2019-05-28T02:51:01.526Z,13.40
2019-05-28T02:53:33.235Z,13.30
2019-05-28T02:56:04.094Z,13.40
2019-05-28T02:58:37.474Z,13.30
2019-05-28T03:01:11.277Z,13.30
2019-05-28T03:03:46.056Z,13.30
2019-05-28T03:06:17.718Z,13.30
2019-05-28T03:08:50.900Z,13.30
2019-05-28T03:11:21.353Z,13.30
2019-05-28T03:13:51.917Z,13.30
2019-05-28T03:16:27.253Z,13.30
2019-05-28T03:19:00.789Z,13.30
2019-05-28T03:21:35.192Z,13.30
2019-05-28T03:24:08.070Z,13.30
2019-05-28T03:26:38.547Z,13.30
2019-05-28T03:29:09.065Z,13.30
2019-05-28T03:31:40.035Z,13.30
2019-05-28T03:34:10.622Z,13.30
2019-05-28T03:36:42.051Z,13.30
2019-05-28T03:39:13.687Z,13.30
2019-05-28T03:41:44.156Z,13.40
2019-05-28T03:44:14.570Z,13.30
2019-05-28T03:46:44.997Z,13.40
2019-05-28T03:49:15.507Z,13.40
2019-05-28T03:51:45.934Z,13.40
2019-05-28T03:54:16.375Z,13.40
2019-05-28T03:56:46.798Z,13.40
2019-05-28T03:59:17.332Z,13.40
2019-05-28T04:01:47.776Z,13.40
2019-05-28T04:04:18.275Z,13.40
2019-05-28T04:06:48.772Z,13.40
2019-05-28T04:09:19.266Z,13.40
2019-05-28T04:11:49.729Z,13.50
2019-05-28T04:14:20.189Z,13.40
2019-05-28T04:16:50.714Z,13.40
2019-05-28T04:19:21.263Z,13.40
2019-05-28T04:21:51.799Z,13.40
2019-05-28T04:24:22.247Z,13.40
2019-05-28T04:26:52.718Z,13.40
2019-05-28T04:29:23.209Z,13.40
2019-05-28T04:31:53.660Z,13.30
2019-05-28T04:34:24.110Z,13.30
2019-05-28T04:36:54.662Z,13.30
2019-05-28T04:39:25.186Z,13.30
2019-05-28T04:41:55.655Z,13.30
2019-05-28T04:44:26.081Z,13.30
2019-05-28T04:46:56.528Z,13.30
2019-05-28T04:49:26.986Z,13.30
2019-05-28T04:51:57.445Z,13.30
2019-05-28T04:54:27.981Z,13.30
2019-05-28T04:56:58.446Z,13.30
2019-05-28T04:59:29.353Z,13.30
2019-05-28T05:01:59.836Z,13.40
2019-05-28T05:04:30.410Z,13.40
2019-05-28T05:07:00.864Z,13.40
2019-05-28T05:09:31.308Z,13.40
2019-05-28T05:12:02.496Z,13.40
2019-05-28T05:14:32.980Z,13.40
2019-05-28T05:17:03.462Z,13.40
2019-05-28T05:19:33.962Z,13.50
2019-05-28T05:22:04.463Z,13.50
2019-05-28T05:24:34.940Z,13.50
2019-05-28T05:27:05.416Z,13.50
2019-05-28T05:29:35.866Z,13.50
2019-05-28T05:32:06.422Z,13.50
2019-05-28T05:34:36.869Z,13.60
2019-05-28T05:37:07.400Z,13.60
2019-05-28T05:39:37.913Z,13.60
2019-05-28T05:42:08.475Z,13.60
2019-05-28T05:44:39.018Z,13.60
2019-05-28T05:47:09.496Z,13.60
2019-05-28T05:49:39.972Z,13.60
2019-05-28T05:52:10.455Z,13.60
2019-05-28T05:54:40.921Z,13.60
2019-05-28T05:57:14.998Z,13.60
2019-05-28T05:59:45.454Z,13.60
2019-05-28T06:02:16.131Z,13.60
2019-05-28T06:04:46.525Z,13.70
2019-05-28T06:07:17.032Z,13.70
2019-05-28T06:09:47.469Z,13.70
2019-05-28T06:12:18.409Z,13.80
2019-05-28T06:14:48.939Z,13.80
2019-05-28T06:17:19.809Z,13.80
2019-05-28T06:19:50.824Z,13.80
2019-05-28T06:22:21.355Z,13.80
2019-05-28T06:24:51.897Z,13.80
2019-05-28T06:27:22.369Z,13.80
2019-05-28T06:29:58.648Z,13.80
2019-05-28T06:32:32.751Z,13.80
2019-05-28T06:35:01.792Z,13.80
2019-05-28T06:37:32.805Z,13.80
2019-05-28T06:40:03.834Z,13.80
2019-05-28T06:42:39.032Z,13.80
2019-05-28T06:45:07.935Z,13.80
2019-05-28T06:47:38.657Z,13.90
2019-05-28T06:50:11.041Z,13.90
2019-05-28T06:52:42.378Z,13.80
2019-05-28T06:55:13.528Z,13.90
2019-05-28T06:57:44.249Z,13.90
2019-05-28T07:00:16.842Z,13.90
2019-05-28T07:02:47.365Z,14.00
2019-05-28T07:05:18.939Z,14.00
2019-05-28T07:07:50.007Z,14.10
2019-05-28T07:10:21.625Z,14.10
2019-05-28T07:12:52.158Z,14.20
2019-05-28T07:15:23.969Z,14.20
2019-05-28T07:17:54.630Z,14.20
2019-05-28T07:20:25.299Z,14.20
2019-05-28T07:22:55.776Z,14.20
2019-05-28T07:25:27.009Z,14.30
2019-05-28T07:28:10.547Z,14.30
2019-05-28T07:30:30.177Z,14.40
2019-05-28T07:33:00.907Z,14.40
2019-05-28T07:35:44.811Z,14.40
2019-05-28T07:38:03.923Z,14.50
2019-05-28T07:40:34.970Z,14.60
2019-05-28T07:43:05.489Z,14.60
2019-05-28T07:45:36.247Z,14.60
2019-05-28T07:48:06.933Z,14.60
2019-05-28T07:50:37.386Z,14.60
2019-05-28T07:53:07.917Z,14.60
2019-05-28T07:55:38.365Z,14.60
2019-05-28T07:58:09.263Z,14.50
2019-05-28T08:00:41.854Z,14.50
2019-05-28T08:03:15.675Z,14.60
2019-05-28T08:05:46.151Z,14.60
2019-05-28T08:08:21.598Z,14.70
2019-05-28T08:10:52.156Z,14.80
2019-05-28T08:13:39.170Z,14.80
2019-05-28T08:15:54.876Z,14.90
2019-05-28T08:18:25.353Z,14.90
2019-05-28T08:20:55.818Z,14.90
2019-05-28T08:23:26.250Z,14.90
2019-05-28T08:25:56.720Z,15.00
2019-05-28T08:28:27.184Z,15.00
2019-05-28T08:31:13.985Z,15.10
2019-05-28T08:33:29.784Z,15.10
2019-05-28T08:36:00.228Z,15.20
2019-05-28T08:38:30.726Z,15.20
2019-05-28T08:41:01.209Z,15.20
2019-05-28T08:43:31.714Z,15.20
2019-05-28T08:46:02.288Z,15.20
2019-05-28T08:48:32.785Z,15.20
2019-05-28T08:51:04.874Z,15.10
2019-05-28T08:53:35.325Z,15.00
2019-05-28T08:56:05.852Z,14.80
2019-05-28T08:58:36.290Z,14.70
2019-05-28T09:01:06.725Z,14.60
2019-05-28T09:03:37.163Z,14.50
2019-05-28T09:06:07.664Z,14.30
2019-05-28T09:08:40.046Z,14.20
2019-05-28T09:11:10.974Z,14.20
2019-05-28T09:13:41.715Z,14.20
2019-05-28T09:16:12.700Z,14.20
2019-05-28T09:18:43.153Z,14.20
2019-05-28T09:21:14.955Z,14.30
2019-05-28T09:23:45.414Z,14.30
2019-05-28T09:26:15.855Z,14.30
2019-05-28T09:28:46.921Z,14.30
2019-05-28T09:31:17.413Z,14.40
2019-05-28T09:33:47.831Z,14.40
2019-05-28T09:36:18.421Z,14.40
2019-05-28T09:38:48.855Z,14.40
2019-05-28T09:41:19.379Z,14.40
2019-05-28T09:43:49.837Z,14.30
2019-05-28T09:46:20.288Z,14.20
2019-05-28T09:48:50.734Z,14.20
2019-05-28T09:51:21.248Z,14.20
2019-05-28T09:53:51.697Z,14.10
2019-05-28T09:56:22.214Z,14.10
2019-05-28T09:58:53.294Z,14.10
2019-05-28T10:01:24.688Z,14.10
2019-05-28T10:03:55.172Z,14.10
2019-05-28T10:06:36.871Z,14.10
2019-05-28T10:08:58.626Z,14.10
2019-05-28T10:11:29.198Z,14.20
2019-05-28T10:14:01.464Z,14.20
2019-05-28T10:16:32.117Z,14.20
2019-05-28T10:19:02.890Z,14.30
2019-05-28T10:21:33.404Z,14.30
2019-05-28T10:24:03.863Z,14.30
2019-05-28T10:26:35.056Z,14.40
2019-05-28T10:29:05.687Z,14.30
2019-05-28T10:31:36.344Z,14.30
2019-05-28T10:34:06.793Z,14.20
2019-05-28T10:36:38.179Z,14.00
2019-05-28T10:39:09.944Z,14.00
2019-05-28T10:41:40.953Z,13.90
2019-05-28T10:44:11.825Z,13.90
2019-05-28T10:46:42.270Z,13.90
2019-05-28T10:49:13.070Z,13.90
2019-05-28T10:51:43.778Z,13.90
2019-05-28T10:54:14.261Z,13.90
2019-05-28T10:56:44.732Z,14.00
2019-05-28T10:59:15.202Z,14.00
2019-05-28T11:01:51.118Z,14.00
2019-05-28T11:04:21.613Z,14.00
2019-05-28T11:06:52.531Z,14.10
2019-05-28T11:09:23.450Z,14.10
2019-05-28T11:11:54.117Z,14.10
2019-05-28T11:14:24.589Z,14.10
2019-05-28T11:16:55.118Z,14.20
2019-05-28T11:19:25.577Z,14.20
2019-05-28T11:21:56.019Z,14.30
2019-05-28T11:24:26.543Z,14.40
2019-05-28T11:26:57.028Z,14.40
2019-05-28T11:29:27.506Z,14.30
2019-05-28T11:31:57.985Z,14.30
2019-05-28T11:34:28.511Z,14.30
2019-05-28T11:37:08.941Z,14.20
2019-05-28T11:39:31.134Z,14.20
2019-05-28T11:42:01.733Z,14.20
2019-05-28T11:44:32.370Z,14.20
2019-05-28T11:47:02.926Z,14.30
2019-05-28T11:49:33.490Z,14.30
2019-05-28T11:52:04.233Z,14.20
2019-05-28T11:54:34.647Z,14.20
2019-05-28T11:57:05.117Z,14.10
2019-05-28T11:59:35.614Z,14.00
2019-05-28T12:02:06.402Z,13.90
2019-05-28T12:04:36.913Z,13.90
2019-05-28T12:07:25.180Z,13.90
2019-05-28T12:09:43.006Z,13.90
2019-05-28T12:12:13.526Z,13.90
2019-05-28T12:14:44.117Z,13.90
2019-05-28T12:17:14.548Z,13.90
2019-05-28T12:19:45.101Z,13.80
2019-05-28T12:22:15.530Z,13.70
2019-05-28T12:24:46.023Z,13.70
2019-05-28T12:27:16.480Z,13.70
2019-05-28T12:29:52.085Z,13.60
2019-05-28T12:32:19.146Z,13.60
2019-05-28T12:34:49.655Z,13.70
2019-05-28T12:37:20.130Z,13.80
2019-05-28T12:39:50.751Z,13.80
2019-05-28T12:42:21.260Z,13.90
2019-05-28T12:45:08.450Z,14.00
2019-05-28T12:47:24.056Z,14.10
2019-05-28T12:49:54.519Z,14.10
2019-05-28T12:52:32.887Z,14.10
2019-05-28T12:55:10.459Z,14.10
2019-05-28T12:57:40.924Z,14.20
2019-05-28T13:00:12.914Z,14.40
2019-05-28T13:02:43.426Z,14.50
2019-05-28T13:05:18.074Z,14.60
2019-05-28T13:08:06.353Z,14.60
2019-05-28T13:10:21.212Z,14.60
2019-05-28T13:12:51.768Z,14.60
2019-05-28T13:15:22.479Z,14.60
2019-05-28T13:17:56.097Z,14.80
2019-05-28T13:20:26.600Z,14.90
2019-05-28T13:22:57.072Z,15.10
2019-05-28T13:25:28.361Z,15.10
2019-05-28T13:27:58.912Z,15.10
2019-05-28T13:30:29.403Z,15.10
2019-05-28T13:33:00.011Z,15.00
2019-05-28T13:35:30.471Z,14.80
2019-05-28T13:38:00.941Z,14.70
2019-05-28T13:40:31.462Z,14.50
2019-05-28T13:43:01.938Z,14.40
2019-05-28T13:45:32.452Z,14.20
2019-05-28T13:48:02.991Z,13.80
2019-05-28T13:50:33.515Z,13.40
2019-05-28T13:53:04.018Z,13.10
2019-05-28T13:55:34.466Z,12.90
2019-05-28T13:58:04.947Z,12.80
2019-05-28T14:00:35.630Z,12.70
2019-05-28T14:03:06.919Z,12.60
2019-05-28T14:05:37.394Z,12.60
2019-05-28T14:08:07.832Z,12.60
2019-05-28T14:10:38.401Z,12.60
2019-05-28T14:13:08.921Z,12.50
2019-05-28T14:15:39.394Z,12.50
2019-05-28T14:18:10.083Z,12.50
2019-05-28T14:20:40.669Z,12.50
2019-05-28T14:23:11.164Z,12.50
2019-05-28T14:25:41.753Z,12.50
2019-05-28T14:28:12.253Z,12.50
2019-05-28T14:30:58.789Z,12.50
2019-05-28T14:33:15.380Z,12.50
2019-05-28T14:35:46.023Z,12.50
2019-05-28T14:38:16.769Z,12.50
2019-05-28T14:40:47.277Z,12.60
2019-05-28T14:43:17.849Z,12.60
2019-05-28T14:45:48.696Z,12.70
2019-05-28T14:48:19.193Z,12.80
2019-05-28T14:50:49.679Z,12.90
2019-05-28T14:53:20.193Z,13.00
2019-05-28T14:55:50.773Z,13.10
2019-05-28T14:58:21.258Z,13.10
2019-05-28T15:00:51.700Z,13.10
2019-05-28T15:03:22.116Z,13.10
2019-05-28T15:05:52.708Z,13.10
2019-05-28T15:08:23.178Z,13.10
2019-05-28T15:10:54.851Z,13.20
2019-05-28T15:13:27.683Z,13.20
2019-05-28T15:15:58.813Z,13.30
2019-05-28T15:18:29.566Z,13.40
2019-05-28T15:21:00.063Z,13.50
2019-05-28T15:23:30.638Z,13.60
2019-05-28T15:26:01.236Z,13.60
2019-05-28T15:28:31.738Z,13.70
2019-05-28T15:31:02.316Z,13.70
2019-05-28T15:33:32.798Z,13.70
2019-05-28T15:36:03.383Z,13.70
2019-05-28T15:38:33.857Z,13.60
2019-05-28T15:41:04.980Z,13.70
2019-05-28T15:43:35.446Z,13.60
2019-05-28T15:46:05.958Z,13.60
2019-05-28T15:48:36.412Z,13.60
2019-05-28T15:51:06.904Z,13.50
2019-05-28T15:53:38.210Z,13.40
2019-05-28T15:56:08.765Z,13.30
2019-05-28T15:58:39.217Z,13.30
2019-05-28T16:01:10.270Z,13.20
2019-05-28T16:03:41.078Z,13.20
2019-05-28T16:06:11.639Z,13.10
2019-05-28T16:08:42.556Z,13.10
2019-05-28T16:11:13.261Z,13.10
2019-05-28T16:13:43.919Z,13.10
2019-05-28T16:16:14.390Z,13.10
2019-05-28T16:18:45.576Z,13.20
2019-05-28T16:21:16.288Z,13.20
2019-05-28T16:23:47.037Z,13.20
2019-05-28T16:26:17.754Z,13.20
2019-05-28T16:28:48.454Z,13.30
2019-05-28T16:31:19.313Z,13.30
2019-05-28T16:33:50.180Z,13.30
2019-05-28T16:36:20.983Z,13.40
2019-05-28T16:38:51.685Z,13.40
2019-05-28T16:41:22.326Z,13.50
2019-05-28T16:43:53.124Z,13.50
2019-05-28T16:46:24.121Z,13.60
2019-05-28T16:48:55.656Z,13.60
2019-05-28T16:51:26.502Z,13.70
2019-05-28T16:53:57.169Z,13.80
2019-05-28T16:56:27.909Z,13.90
2019-05-28T16:58:58.585Z,13.90
2019-05-28T17:01:29.781Z,13.90
2019-05-28T17:04:00.559Z,13.90
2019-05-28T17:06:31.332Z,13.90
2019-05-28T17:09:02.202Z,13.90
2019-05-28T17:11:32.876Z,13.90
2019-05-28T17:14:03.684Z,13.90
2019-05-28T17:16:34.413Z,13.90
2019-05-28T17:19:05.805Z,13.90
2019-05-28T17:21:36.531Z,13.90
2019-05-28T17:24:07.204Z,13.80
2019-05-28T17:26:37.700Z,13.80
2019-05-28T17:29:08.512Z,13.80
2019-05-28T17:31:39.214Z,13.80
2019-05-28T17:34:10.587Z,13.80
2019-05-28T17:36:45.418Z,13.70
2019-05-28T17:39:16.255Z,13.60
2019-05-28T17:41:47.075Z,13.50
2019-05-28T17:44:17.791Z,13.40
2019-05-28T17:46:48.321Z,13.30
2019-05-28T17:49:19.186Z,13.30
2019-05-28T17:51:49.839Z,13.20
2019-05-28T17:54:20.569Z,13.10
2019-05-28T17:56:51.515Z,13.00
2019-05-28T17:59:22.469Z,13.00
2019-05-28T18:01:53.277Z,13.00
2019-05-28T18:04:24.126Z,13.00
2019-05-28T18:06:54.932Z,12.90
2019-05-28T18:09:25.645Z,12.80
2019-05-28T18:11:56.346Z,12.80
2019-05-28T18:14:27.085Z,12.70
2019-05-28T18:16:58.397Z,12.70
2019-05-28T18:19:29.040Z,12.70
2019-05-28T18:21:59.900Z,12.70
2019-05-28T18:24:30.687Z,12.60
2019-05-28T18:27:03.675Z,12.60
2019-05-28T18:29:34.843Z,12.50
2019-05-28T18:32:05.787Z,12.50
2019-05-28T18:34:39.195Z,12.50
2019-05-28T18:40:12.968Z,12.40
2019-05-28T18:42:47.151Z,12.40
2019-05-28T18:45:18.674Z,12.40
2019-05-28T18:47:49.685Z,12.30
2019-05-28T18:50:20.779Z,12.30
2019-05-28T18:52:56.365Z,12.30
2019-05-28T18:55:27.314Z,12.30
2019-05-28T18:57:58.172Z,12.30
2019-05-28T19:00:30.423Z,12.30
2019-05-28T19:03:02.163Z,12.20
2019-05-28T19:05:33.415Z,12.20
2019-05-28T19:08:12.041Z,12.20
2019-05-28T19:10:54.134Z,12.20
2019-05-28T19:13:28.042Z,12.10
2019-05-28T19:16:02.815Z,12.10
2019-05-28T19:18:34.223Z,12.10
2019-05-28T19:21:23.008Z,12.20
2019-05-28T19:23:53.836Z,12.10
2019-05-28T19:26:24.629Z,12.10
2019-05-28T19:28:56.158Z,12.10
2019-05-28T19:31:40.485Z,12.10
2019-05-28T19:34:11.717Z,12.10
2019-05-28T19:36:43.862Z,12.10
2019-05-28T19:39:15.136Z,12.10
2019-05-28T19:41:54.128Z,12.10
2019-05-28T19:44:19.220Z,12.10
2019-05-28T19:46:50.186Z,12.10
2019-05-28T19:49:21.234Z,12.10
2019-05-28T19:51:52.254Z,12.10
2019-05-28T19:54:24.221Z,12.10
2019-05-28T19:56:55.216Z,12.10
2019-05-28T19:59:25.930Z,12.10
2019-05-28T20:01:57.375Z,12.10
2019-05-28T20:04:27.849Z,12.10
2019-05-28T20:07:19.033Z,12.10
2019-05-28T20:09:49.482Z,12.10
2019-05-28T20:12:20.137Z,12.10
2019-05-28T20:14:51.286Z,12.10
2019-05-28T20:17:22.235Z,12.10
2019-05-28T20:19:54.571Z,12.10
2019-05-28T20:22:25.397Z,12.10
2019-05-28T20:24:56.130Z,12.10
2019-05-28T20:27:27.956Z,12.10
2019-05-28T20:29:58.799Z,12.10
2019-05-28T20:32:29.364Z,12.10
2019-05-28T20:35:01.555Z,12.10
2019-05-28T20:37:34.149Z,12.10
2019-05-28T20:40:06.082Z,12.00
2019-05-28T20:42:38.690Z,12.00
2019-05-28T20:45:16.734Z,12.00
2019-05-28T20:47:48.158Z,12.00
2019-05-28T20:50:36.080Z,12.00
2019-05-28T20:53:10.031Z,11.90
2019-05-28T20:55:54.075Z,11.90
2019-05-28T20:58:39.327Z,11.90
2019-05-28T21:00:59.357Z,11.90
2019-05-28T21:03:29.898Z,11.90
2019-05-28T21:06:00.855Z,11.90
2019-05-28T21:08:31.585Z,11.90
2019-05-28T21:11:02.191Z,11.90
2019-05-28T21:13:32.781Z,11.90
2019-05-28T21:16:06.990Z,11.90
2019-05-28T21:18:37.579Z,12.00
2019-05-28T21:21:10.295Z,11.90
2019-05-28T21:23:41.286Z,11.90
2019-05-28T21:26:15.191Z,11.80
2019-05-28T21:28:45.910Z,11.70
2019-05-28T21:31:17.439Z,11.50
2019-05-28T21:33:55.467Z,11.40
2019-05-28T21:36:26.113Z,11.20
2019-05-28T21:38:57.372Z,11.10
2019-05-28T21:41:28.071Z,11.00
2019-05-28T21:43:58.582Z,10.90
2019-05-28T21:46:29.485Z,10.90
2019-05-28T21:49:00.910Z,10.90
2019-05-28T21:51:31.535Z,10.90
2019-05-28T21:54:03.337Z,10.90
2019-05-28T21:56:34.209Z,10.80
2019-05-28T21:59:04.836Z,10.80
2019-05-28T22:01:38.175Z,10.80
2019-05-28T22:04:09.608Z,10.80
2019-05-28T22:06:40.509Z,10.70
2019-05-28T22:09:11.210Z,10.70
2019-05-28T22:11:41.697Z,10.70
2019-05-28T22:14:12.253Z,10.80
2019-05-28T22:16:42.811Z,10.80
2019-05-28T22:19:15.377Z,10.90
2019-05-28T22:21:46.028Z,10.90
2019-05-28T22:24:16.782Z,10.90
2019-05-28T22:26:47.898Z,10.90
2019-05-28T22:29:18.485Z,10.90
2019-05-28T22:31:50.138Z,10.90
2019-05-28T22:34:20.923Z,10.90
2019-05-28T22:36:51.579Z,10.90
2019-05-28T22:39:22.189Z,10.80
2019-05-28T22:41:52.739Z,10.80
2019-05-28T22:44:23.286Z,10.80
2019-05-28T22:46:53.750Z,10.80
2019-05-28T22:49:24.234Z,10.70
2019-05-28T22:51:54.689Z,10.70
2019-05-28T22:54:25.164Z,10.70
2019-05-28T22:56:55.609Z,10.70
2019-05-28T22:59:26.230Z,10.70
2019-05-28T23:01:56.703Z,10.70
2019-05-28T23:04:27.223Z,10.70
2019-05-28T23:06:57.673Z,10.70
2019-05-28T23:09:28.218Z,10.60
2019-05-28T23:11:59.836Z,10.60
2019-05-28T23:14:30.394Z,10.60
2019-05-28T23:17:02.186Z,10.60
2019-05-28T23:19:32.798Z,10.60
2019-05-28T23:22:03.457Z,10.60
2019-05-28T23:24:33.972Z,10.60
2019-05-28T23:27:05.502Z,10.50
2019-05-28T23:29:36.104Z,10.50
2019-05-28T23:32:06.699Z,10.50
2019-05-28T23:34:37.199Z,10.40
2019-05-28T23:37:09.074Z,10.40
2019-05-28T23:39:39.830Z,10.40
2019-05-28T23:42:11.484Z,10.40
2019-05-28T23:44:43.078Z,10.40
2019-05-28T23:47:14.264Z,10.40
2019-05-28T23:49:51.153Z,10.40
2019-05-28T23:52:21.664Z,10.40
2019-05-28T23:54:52.203Z,10.30
2019-05-28T23:57:22.725Z,10.30
2019-05-28T23:59:54.930Z,10.30
